createdAt,value
2023-01-19T00:02:22.392Z,10.00
2023-01-19T00:04:54.462Z,9.23
2023-01-19T00:07:24.996Z,9.60
2023-01-19T00:09:55.536Z,8.60
2023-01-19T00:12:28.535Z,9.53
2023-01-19T00:14:59.111Z,8.83
2023-01-19T00:17:32.047Z,9.80
2023-01-19T00:20:03.775Z,9.30
2023-01-19T00:22:34.437Z,9.43
2023-01-19T00:25:05.216Z,9.20
2023-01-19T00:27:37.745Z,8.47
2023-01-19T00:30:10.852Z,8.47
2023-01-19T00:32:42.996Z,8.77
2023-01-19T00:35:13.671Z,9.10
2023-01-19T00:37:46.084Z,9.13
2023-01-19T00:40:17.459Z,9.37
2023-01-19T00:42:51.878Z,9.13
2023-01-19T00:45:24.667Z,9.17
2023-01-19T00:47:56.822Z,9.73
2023-01-19T00:50:29.766Z,9.83
2023-01-19T00:53:03.419Z,10.80
2023-01-19T00:55:34.603Z,10.40
2023-01-19T00:58:07.636Z,10.20
2023-01-19T01:00:38.319Z,10.73
2023-01-19T01:03:08.979Z,9.80
2023-01-19T01:05:43.681Z,9.23
2023-01-19T01:08:15.739Z,10.40
2023-01-19T01:10:50.572Z,9.20
2023-01-19T01:13:27.477Z,9.57
2023-01-19T01:15:58.022Z,9.90
2023-01-19T01:18:29.341Z,9.23
2023-01-19T01:21:04.378Z,8.97
2023-01-19T01:23:40.284Z,9.07
2023-01-19T01:26:13.064Z,9.60
2023-01-19T01:28:45.430Z,9.20
2023-01-19T01:31:16.908Z,10.07
2023-01-19T01:33:51.452Z,9.60
2023-01-19T01:36:25.127Z,10.07
2023-01-19T01:38:55.556Z,10.47
2023-01-19T01:41:28.728Z,10.43
2023-01-19T01:44:04.142Z,10.43
2023-01-19T01:46:41.923Z,10.33
2023-01-19T01:49:13.402Z,10.13
2023-01-19T01:51:53.681Z,10.40
2023-01-19T01:54:29.837Z,9.70
2023-01-19T01:57:04.652Z,10.97
2023-01-19T01:59:42.574Z,10.60
2023-01-19T02:02:36.845Z,10.60
2023-01-19T02:05:12.322Z,10.30
2023-01-19T02:08:25.103Z,10.90
2023-01-19T02:11:15.597Z,10.97
2023-01-19T02:13:47.732Z,9.93
2023-01-19T02:16:18.985Z,10.50
2023-01-19T02:18:49.823Z,10.33
2023-01-19T02:21:50.714Z,10.57
2023-01-19T02:24:23.549Z,11.70
2023-01-19T02:26:55.745Z,11.70
2023-01-19T02:29:28.653Z,10.73
2023-01-19T02:32:02.091Z,10.90
2023-01-19T02:34:33.272Z,10.27
2023-01-19T02:37:15.926Z,10.53
2023-01-19T02:39:50.759Z,10.27
2023-01-19T02:42:30.587Z,10.87
2023-01-19T02:45:03.316Z,9.90
2023-01-19T02:47:43.030Z,11.07
2023-01-19T02:50:33.061Z,11.17
2023-01-19T02:53:16.001Z,11.13
2023-01-19T02:55:49.864Z,11.43
2023-01-19T02:58:26.537Z,11.77
2023-01-19T03:01:19.881Z,11.97
2023-01-19T03:03:55.759Z,10.87
2023-01-19T03:06:47.306Z,10.90
2023-01-19T03:09:45.252Z,11.77
2023-01-19T03:12:24.819Z,11.30
2023-01-19T03:14:58.421Z,11.33
2023-01-19T03:17:33.349Z,10.30
2023-01-19T03:20:06.256Z,11.67
2023-01-19T03:22:40.595Z,11.37
2023-01-19T03:25:13.924Z,11.07
2023-01-19T03:27:50.202Z,11.30
2023-01-19T03:30:36.180Z,11.57
2023-01-19T03:33:27.669Z,12.33
2023-01-19T03:36:04.157Z,11.10
2023-01-19T03:38:39.029Z,11.93
2023-01-19T03:41:15.508Z,12.60
2023-01-19T03:43:48.852Z,12.80
2023-01-19T03:46:21.962Z,12.27
2023-01-19T03:48:55.390Z,12.77
2023-01-19T03:51:26.916Z,12.17
2023-01-19T03:53:57.582Z,12.97
2023-01-19T03:56:28.283Z,11.93
2023-01-19T03:58:58.894Z,13.43
2023-01-19T04:01:33.522Z,12.73
2023-01-19T04:04:05.740Z,11.43
2023-01-19T04:06:36.915Z,12.77
2023-01-19T04:09:08.689Z,12.37
2023-01-19T04:11:41.460Z,11.47
2023-01-19T04:14:14.218Z,12.97
2023-01-19T04:16:47.194Z,13.53
2023-01-19T04:19:18.793Z,14.20
2023-01-19T04:21:52.720Z,13.47
2023-01-19T04:24:24.989Z,12.93
2023-01-19T04:27:00.648Z,12.87
2023-01-19T04:29:31.315Z,12.40
2023-01-19T04:32:03.711Z,12.70
2023-01-19T04:34:34.676Z,12.53
2023-01-19T04:37:05.631Z,13.00
2023-01-19T04:39:40.321Z,14.23
2023-01-19T04:42:11.097Z,13.90
2023-01-19T04:44:43.300Z,13.20
2023-01-19T04:47:15.405Z,13.27
2023-01-19T04:49:47.056Z,14.40
2023-01-19T04:52:20.955Z,13.13
2023-01-19T04:54:53.235Z,13.63
2023-01-19T04:57:25.194Z,13.57
2023-01-19T04:59:56.276Z,13.87
2023-01-19T05:02:27.597Z,13.83
2023-01-19T05:04:59.964Z,14.00
2023-01-19T05:07:30.973Z,13.33
2023-01-19T05:10:04.950Z,13.53
2023-01-19T05:12:36.221Z,13.20
2023-01-19T05:15:09.686Z,14.00
2023-01-19T05:17:41.783Z,13.30
2023-01-19T05:20:16.268Z,13.83
2023-01-19T05:22:53.604Z,14.10
2023-01-19T05:25:26.307Z,14.00
2023-01-19T05:27:56.858Z,14.10
2023-01-19T05:30:27.677Z,12.20
2023-01-19T05:32:58.436Z,13.80
2023-01-19T05:35:35.745Z,14.20
2023-01-19T05:38:02.480Z,14.13
2023-01-19T05:40:35.868Z,13.73
2023-01-19T05:43:06.660Z,13.70
2023-01-19T05:45:38.950Z,13.80
2023-01-19T05:48:11.223Z,13.43
2023-01-19T05:50:44.209Z,13.57
2023-01-19T05:53:17.114Z,13.93
2023-01-19T05:55:48.236Z,14.03
2023-01-19T05:58:21.033Z,14.07
2023-01-19T06:00:56.325Z,13.33
2023-01-19T06:03:26.947Z,13.93
2023-01-19T06:06:05.026Z,13.07
2023-01-19T06:08:33.309Z,13.43
2023-01-19T06:11:06.653Z,15.23
2023-01-19T06:13:42.693Z,14.20
2023-01-19T06:16:13.233Z,13.87
2023-01-19T06:18:47.561Z,14.73
2023-01-19T06:21:18.370Z,13.90
2023-01-19T06:23:49.587Z,12.83
2023-01-19T06:26:20.152Z,14.20
2023-01-19T06:28:53.130Z,13.13
2023-01-19T06:31:26.696Z,12.43
2023-01-19T06:33:58.934Z,12.90
2023-01-19T06:36:30.335Z,12.87
2023-01-19T06:39:02.654Z,14.57
2023-01-19T06:41:37.109Z,13.07
2023-01-19T06:44:09.755Z,13.57
2023-01-19T06:46:40.454Z,12.27
2023-01-19T06:49:14.994Z,12.53
2023-01-19T06:51:49.283Z,12.73
2023-01-19T06:54:29.475Z,12.90
2023-01-19T06:56:57.919Z,12.67
2023-01-19T06:59:34.689Z,13.30
2023-01-19T07:02:27.310Z,13.33
2023-01-19T07:04:45.405Z,12.70
2023-01-19T07:07:19.589Z,12.83
2023-01-19T07:09:54.831Z,13.50
2023-01-19T07:12:32.358Z,12.53
2023-01-19T07:15:03.152Z,12.43
2023-01-19T07:17:37.443Z,12.30
2023-01-19T07:20:12.273Z,13.13
2023-01-19T07:22:48.967Z,12.37
2023-01-19T07:25:23.028Z,11.83
2023-01-19T07:27:55.651Z,12.23
2023-01-19T07:30:26.329Z,11.17
2023-01-19T07:33:00.163Z,11.47
2023-01-19T07:35:32.083Z,12.30
2023-01-19T07:38:05.776Z,12.80
2023-01-19T07:40:36.552Z,11.97
2023-01-19T07:43:08.989Z,12.73
2023-01-19T07:45:39.434Z,13.10
2023-01-19T07:48:11.574Z,12.47
2023-01-19T07:50:47.554Z,12.83
2023-01-19T07:53:19.542Z,12.57
2023-01-19T07:55:57.003Z,12.40
2023-01-19T07:58:27.697Z,11.43
2023-01-19T08:00:58.326Z,11.63
2023-01-19T08:03:29.361Z,11.63
2023-01-19T08:06:03.405Z,11.30
2023-01-19T08:08:40.979Z,12.40
2023-01-19T08:11:13.573Z,11.87
2023-01-19T08:13:47.264Z,10.70
2023-01-19T08:16:22.439Z,11.97
2023-01-19T08:19:01.058Z,10.97
2023-01-19T08:21:40.904Z,10.40
2023-01-19T08:24:19.685Z,9.93
2023-01-19T08:26:51.390Z,11.23
2023-01-19T08:29:24.473Z,11.83
2023-01-19T08:31:58.652Z,9.73
2023-01-19T08:34:31.714Z,11.03
2023-01-19T08:37:04.247Z,9.97
2023-01-19T08:39:36.787Z,9.70
2023-01-19T08:42:11.500Z,9.90
2023-01-19T08:44:57.340Z,9.83
2023-01-19T08:47:17.328Z,10.07
2023-01-19T08:49:49.052Z,10.20
2023-01-19T08:52:22.403Z,9.97
2023-01-19T08:54:55.265Z,10.43
2023-01-19T08:57:30.056Z,10.33
2023-01-19T09:00:03.086Z,10.17
2023-01-19T09:02:33.635Z,9.57
2023-01-19T09:05:07.410Z,10.43
2023-01-19T09:07:38.371Z,11.17
2023-01-19T09:10:10.549Z,10.30
2023-01-19T09:12:43.688Z,10.60
2023-01-19T09:15:15.872Z,9.67
2023-01-19T09:17:46.558Z,9.10
2023-01-19T09:20:18.706Z,9.37
2023-01-19T09:22:55.597Z,8.87
2023-01-19T09:25:24.366Z,9.20
2023-01-19T09:27:56.861Z,9.37
2023-01-19T09:30:29.440Z,8.50
2023-01-19T09:33:11.660Z,9.00
2023-01-19T09:35:45.400Z,8.97
2023-01-19T09:38:18.692Z,9.13
2023-01-19T09:40:55.622Z,8.93
2023-01-19T09:43:47.791Z,9.70
2023-01-19T09:46:21.445Z,8.70
2023-01-19T09:48:53.969Z,8.97
2023-01-19T09:51:27.756Z,9.97
2023-01-19T09:54:16.683Z,8.80
2023-01-19T09:56:52.223Z,9.67
2023-01-19T09:59:25.289Z,8.67
2023-01-19T10:02:27.510Z,8.30
2023-01-19T10:05:04.880Z,9.97
2023-01-19T10:07:53.744Z,7.97
2023-01-19T10:10:32.185Z,8.60
2023-01-19T10:13:36.502Z,8.73
2023-01-19T10:16:31.788Z,8.43
2023-01-19T10:19:26.069Z,8.63
2023-01-19T10:21:59.654Z,8.47
2023-01-19T10:24:33.278Z,8.58
2023-01-19T10:27:06.951Z,8.43
2023-01-19T10:29:39.102Z,8.20
2023-01-19T10:32:20.601Z,9.20
2023-01-19T10:34:54.771Z,9.07
2023-01-19T10:37:44.779Z,8.80
2023-01-19T10:40:40.863Z,8.33
2023-01-19T10:43:41.066Z,8.93
2023-01-19T10:46:45.691Z,9.00
2023-01-19T10:49:40.769Z,9.47
2023-01-19T10:52:22.283Z,8.33
2023-01-19T10:54:53.004Z,9.00
2023-01-19T10:57:37.167Z,9.27
2023-01-19T11:00:10.970Z,10.23
2023-01-19T11:02:46.002Z,9.40
2023-01-19T11:05:26.530Z,9.40
2023-01-19T11:07:57.280Z,8.87
2023-01-19T11:10:30.318Z,8.60
2023-01-19T11:13:11.215Z,8.17
2023-01-19T11:15:49.167Z,9.47
2023-01-19T11:18:28.570Z,9.00
2023-01-19T11:21:06.877Z,9.83
2023-01-19T11:23:43.458Z,9.27
2023-01-19T11:26:35.183Z,8.93
2023-01-19T11:29:07.861Z,10.03
2023-01-19T11:31:39.369Z,7.93
2023-01-19T11:34:33.268Z,9.27
2023-01-19T11:37:06.892Z,8.87
2023-01-19T11:39:52.184Z,9.80
2023-01-19T11:42:24.675Z,9.70
2023-01-19T11:45:17.396Z,9.70
2023-01-19T11:47:52.660Z,8.70
2023-01-19T11:53:17.972Z,8.97
2023-01-19T11:56:11.098Z,8.23
2023-01-19T11:58:48.646Z,9.20
2023-01-19T12:01:27.557Z,7.93
2023-01-19T12:04:19.513Z,9.10
2023-01-19T12:06:53.080Z,8.60
2023-01-19T12:09:38.059Z,10.13
2023-01-19T12:12:31.275Z,9.17
2023-01-19T12:15:45.675Z,9.70
2023-01-19T12:18:22.667Z,8.60
2023-01-19T12:20:57.026Z,8.43
2023-01-19T12:23:46.149Z,9.40
2023-01-19T12:26:28.857Z,8.70
2023-01-19T12:29:03.884Z,9.50
2023-01-19T12:31:35.968Z,8.57
2023-01-19T12:34:29.016Z,8.80
2023-01-19T12:37:05.373Z,9.70
2023-01-19T12:39:41.981Z,9.90
2023-01-19T12:42:21.414Z,8.23
2023-01-19T12:44:58.979Z,9.10
2023-01-19T12:47:31.509Z,8.73
2023-01-19T12:50:08.431Z,8.30
2023-01-19T12:52:45.922Z,8.10
2023-01-19T12:55:37.408Z,8.80
2023-01-19T12:58:18.913Z,9.00
2023-01-19T13:01:02.672Z,8.40
2023-01-19T13:03:36.952Z,8.10
2023-01-19T13:06:07.418Z,8.80
2023-01-19T13:08:59.035Z,7.50
2023-01-19T13:11:34.312Z,9.00
2023-01-19T13:14:04.916Z,8.70
2023-01-19T13:16:45.375Z,9.27
2023-01-19T13:19:21.827Z,9.70
2023-01-19T13:21:56.887Z,9.67
2023-01-19T13:24:32.298Z,9.23
2023-01-19T13:27:03.454Z,8.63
2023-01-19T13:29:39.698Z,8.80
2023-01-19T13:32:17.492Z,8.67
2023-01-19T13:34:53.186Z,8.33
2023-01-19T13:37:26.488Z,8.70
2023-01-19T13:39:59.258Z,7.83
2023-01-19T13:42:32.911Z,8.23
2023-01-19T13:45:40.122Z,9.93
2023-01-19T13:48:16.670Z,9.67
2023-01-19T13:51:03.929Z,9.77
2023-01-19T13:53:36.571Z,10.53
2023-01-19T13:56:20.674Z,11.13
2023-01-19T13:59:14.169Z,10.57
2023-01-19T14:01:47.651Z,10.40
2023-01-19T14:04:31.783Z,11.03
2023-01-19T14:07:06.544Z,11.40
2023-01-19T14:09:37.111Z,10.47
2023-01-19T14:12:20.171Z,10.90
2023-01-19T14:14:53.161Z,11.40
2023-01-19T14:17:28.193Z,11.57
2023-01-19T14:20:05.049Z,11.93
2023-01-19T14:22:46.095Z,11.40
2023-01-19T14:25:32.051Z,11.37
2023-01-19T14:28:30.288Z,11.20
2023-01-19T14:31:05.921Z,12.20
2023-01-19T14:33:45.273Z,11.80
2023-01-19T14:36:20.038Z,11.47
2023-01-19T14:38:52.674Z,11.80
2023-01-19T14:41:52.840Z,11.33
2023-01-19T14:44:38.091Z,12.10
2023-01-19T14:47:12.098Z,11.70
2023-01-19T14:49:47.242Z,12.27
2023-01-19T14:52:27.705Z,14.13
2023-01-19T14:55:09.796Z,11.50
2023-01-19T14:57:38.760Z,12.30
2023-01-19T15:00:17.422Z,11.60
2023-01-19T15:02:49.991Z,13.23
2023-01-19T15:05:21.402Z,12.73
2023-01-19T15:07:53.425Z,12.60
2023-01-19T15:10:26.284Z,14.13
2023-01-19T15:12:59.960Z,12.73
2023-01-19T15:15:35.700Z,13.23
2023-01-19T15:18:07.802Z,12.60
2023-01-19T15:20:41.614Z,12.40
2023-01-19T15:23:13.787Z,14.07
2023-01-19T15:25:44.452Z,13.43
2023-01-19T15:28:19.660Z,13.27
2023-01-19T15:31:08.447Z,12.30
2023-01-19T15:33:50.231Z,11.90
2023-01-19T15:36:24.632Z,12.70
2023-01-19T15:39:00.216Z,12.40
2023-01-19T15:41:33.835Z,12.57
2023-01-19T15:44:08.537Z,11.20
2023-01-19T15:46:40.151Z,11.93
2023-01-19T15:49:12.153Z,12.63
2023-01-19T15:51:45.816Z,12.97
2023-01-19T15:54:18.459Z,12.63
2023-01-19T15:56:56.223Z,13.33
2023-01-19T15:59:28.104Z,12.80
2023-01-19T16:02:00.407Z,12.60
2023-01-19T16:04:32.559Z,12.80
2023-01-19T16:07:06.145Z,12.85
2023-01-19T16:09:39.146Z,12.70
2023-01-19T16:12:11.211Z,11.83
2023-01-19T16:14:43.442Z,13.83
2023-01-19T16:17:16.942Z,13.07
2023-01-19T16:19:53.630Z,12.43
2023-01-19T16:22:25.769Z,12.30
2023-01-19T16:24:57.239Z,13.13
2023-01-19T16:27:30.322Z,13.10
2023-01-19T16:30:03.816Z,13.00
2023-01-19T16:32:36.970Z,12.03
2023-01-19T16:35:12.453Z,11.93
2023-01-19T16:37:44.612Z,12.67
2023-01-19T16:40:15.678Z,12.37
2023-01-19T16:42:47.463Z,11.97
2023-01-19T16:45:19.051Z,11.73
2023-01-19T16:47:52.355Z,11.13
2023-01-19T16:50:23.114Z,12.10
2023-01-19T16:53:05.372Z,13.20
2023-01-19T16:55:38.159Z,11.67
2023-01-19T16:58:11.808Z,12.80
2023-01-19T17:00:43.769Z,11.53
2023-01-19T17:03:15.849Z,11.30
2023-01-19T17:05:51.412Z,11.57
2023-01-19T17:08:23.939Z,11.73
2023-01-19T17:10:55.912Z,11.90
2023-01-19T17:13:26.857Z,10.90
2023-01-19T17:16:03.545Z,12.00
2023-01-19T17:18:38.214Z,11.40
2023-01-19T17:21:15.210Z,11.17
2023-01-19T17:23:50.751Z,11.00
2023-01-19T17:26:25.420Z,10.93
2023-01-19T17:29:01.047Z,11.20
2023-01-19T17:31:33.491Z,11.57
2023-01-19T17:34:05.967Z,11.22
2023-01-19T17:36:37.724Z,11.13
2023-01-19T17:39:18.518Z,11.50
2023-01-19T17:41:54.153Z,11.07
2023-01-19T17:44:26.336Z,11.70
2023-01-19T17:49:52.558Z,12.40
2023-01-19T17:52:27.116Z,10.60
2023-01-19T17:55:01.542Z,11.03
2023-01-19T17:57:33.744Z,11.37
2023-01-19T18:00:09.253Z,12.10
2023-01-19T18:02:41.350Z,11.43
2023-01-19T18:05:14.835Z,11.63
2023-01-19T18:07:47.190Z,11.03
2023-01-19T18:10:18.184Z,11.73
2023-01-19T18:13:01.449Z,11.87
2023-01-19T18:15:32.036Z,12.23
2023-01-19T18:18:06.491Z,11.33
2023-01-19T18:20:39.308Z,11.17
2023-01-19T18:23:14.221Z,11.37
2023-01-19T18:25:49.244Z,11.80
2023-01-19T18:28:23.654Z,10.60
2023-01-19T18:30:56.770Z,11.30
2023-01-19T18:33:28.255Z,11.57
2023-01-19T18:36:00.652Z,10.73
2023-01-19T18:38:36.337Z,11.43
2023-01-19T18:41:11.244Z,10.67
2023-01-19T18:43:43.770Z,10.67
2023-01-19T18:46:15.647Z,11.23
2023-01-19T18:48:47.627Z,10.57
2023-01-19T18:51:19.764Z,9.97
2023-01-19T18:53:52.550Z,10.33
2023-01-19T18:56:26.732Z,11.00
2023-01-19T18:58:59.099Z,11.20
2023-01-19T19:01:33.812Z,11.23
2023-01-19T19:04:07.720Z,10.90
2023-01-19T19:06:39.868Z,10.87
2023-01-19T19:09:11.624Z,11.20
2023-01-19T19:11:44.310Z,10.67
2023-01-19T19:14:15.096Z,10.57
2023-01-19T19:16:47.674Z,11.10
2023-01-19T19:19:19.127Z,10.47
2023-01-19T19:21:54.026Z,10.57
2023-01-19T19:24:24.733Z,10.63
2023-01-19T19:26:55.893Z,11.53
2023-01-19T19:29:28.539Z,11.00
2023-01-19T19:32:00.287Z,11.30
2023-01-19T19:34:31.084Z,11.67
2023-01-19T19:37:03.052Z,11.10
2023-01-19T19:39:34.134Z,10.77
2023-01-19T19:42:05.357Z,10.40
2023-01-19T19:44:37.433Z,11.63
2023-01-19T19:47:09.870Z,11.27
2023-01-19T19:49:42.224Z,10.73
2023-01-19T19:52:14.931Z,10.63
2023-01-19T19:54:52.289Z,10.03
2023-01-19T19:57:25.882Z,11.13
2023-01-19T19:59:58.036Z,10.70
2023-01-19T20:02:29.712Z,10.47
2023-01-19T20:05:00.439Z,10.13
2023-01-19T20:07:34.244Z,10.10
2023-01-19T20:10:09.051Z,10.38
2023-01-19T20:12:40.833Z,10.28
2023-01-19T20:15:14.271Z,10.30
2023-01-19T20:17:45.386Z,10.57
2023-01-19T20:20:18.540Z,10.77
2023-01-19T20:22:49.073Z,11.97
2023-01-19T20:25:21.137Z,13.50
2023-01-19T20:27:51.581Z,12.27
2023-01-19T20:30:24.239Z,14.87
2023-01-19T20:32:57.951Z,12.50
2023-01-19T20:35:30.387Z,12.23
2023-01-19T20:38:02.659Z,11.43
2023-01-19T20:40:33.203Z,11.07
2023-01-19T20:43:05.045Z,11.33
2023-01-19T20:45:35.506Z,10.87
2023-01-19T20:48:09.732Z,11.60
2023-01-19T20:50:44.479Z,11.77
2023-01-19T20:53:15.867Z,11.60
2023-01-19T20:55:46.368Z,10.83
2023-01-19T20:58:22.116Z,10.43
2023-01-19T21:00:54.731Z,10.60
2023-01-19T21:03:28.054Z,10.87
2023-01-19T21:06:00.721Z,10.48
2023-01-19T21:08:32.943Z,10.77
2023-01-19T21:11:07.055Z,10.70
2023-01-19T21:13:39.226Z,10.45
2023-01-19T21:16:10.777Z,11.70
2023-01-19T21:18:42.136Z,12.00
2023-01-19T21:21:29.062Z,11.10
2023-01-19T21:23:47.460Z,10.63
2023-01-19T21:26:20.757Z,10.70
2023-01-19T21:28:56.326Z,11.33
2023-01-19T21:31:32.026Z,11.40
2023-01-19T21:34:04.102Z,10.77
2023-01-19T21:36:37.837Z,12.13
2023-01-19T21:39:12.483Z,10.93
2023-01-19T21:41:45.136Z,10.53
2023-01-19T21:44:16.505Z,11.70
2023-01-19T21:46:49.811Z,10.90
2023-01-19T21:49:23.470Z,11.97
2023-01-19T21:51:56.626Z,10.75
2023-01-19T21:54:29.471Z,12.03
2023-01-19T21:57:02.573Z,11.53
2023-01-19T21:59:36.326Z,11.13
2023-01-19T22:02:33.316Z,11.57
2023-01-19T22:04:52.235Z,11.95
2023-01-19T22:07:25.590Z,11.13
2023-01-19T22:09:59.414Z,12.40
2023-01-19T22:12:36.285Z,11.53
2023-01-19T22:15:09.383Z,12.00
2023-01-19T22:17:43.715Z,10.97
2023-01-19T22:20:17.570Z,11.78
2023-01-19T22:22:53.724Z,11.63
2023-01-19T22:25:26.459Z,12.00
2023-01-19T22:27:59.324Z,11.70
2023-01-19T22:30:31.109Z,11.77
2023-01-19T22:33:03.059Z,11.80
2023-01-19T22:35:35.531Z,11.80
2023-01-19T22:38:05.986Z,12.03
2023-01-19T22:40:37.257Z,11.77
2023-01-19T22:43:09.946Z,11.63
2023-01-19T22:45:45.475Z,12.40
2023-01-19T22:48:17.244Z,12.03
2023-01-19T22:50:48.646Z,13.33
2023-01-19T22:53:19.660Z,12.63
2023-01-19T22:55:51.989Z,12.53
2023-01-19T22:58:26.466Z,12.83
2023-01-19T23:01:03.444Z,12.45
2023-01-19T23:03:33.928Z,13.00
2023-01-19T23:06:11.161Z,12.63
2023-01-19T23:08:45.113Z,13.80
2023-01-19T23:11:27.518Z,12.33
2023-01-19T23:14:05.322Z,13.23
2023-01-19T23:16:42.196Z,13.15
2023-01-19T23:19:20.151Z,12.97
2023-01-19T23:21:53.831Z,12.40
2023-01-19T23:24:26.468Z,13.00
2023-01-19T23:27:02.424Z,12.10
2023-01-19T23:29:37.173Z,12.80
2023-01-19T23:32:07.794Z,13.17
2023-01-19T23:34:38.341Z,11.87
2023-01-19T23:37:09.358Z,12.10
2023-01-19T23:39:43.415Z,13.50
2023-01-19T23:42:13.726Z,12.40
2023-01-19T23:44:45.882Z,14.20
2023-01-19T23:47:17.761Z,13.07
2023-01-19T23:49:49.538Z,12.93
2023-01-19T23:52:20.128Z,13.47
2023-01-19T23:54:54.268Z,13.10
2023-01-19T23:57:26.522Z,12.10
2023-01-19T23:59:59.182Z,12.40
